Waterford, Michigan
Current Conditions -  °F | °C
As of 1:53 PM on Monday 20 Oct 2014 (Local Time) from KPTK Reporting Station
Overcast Overcast  
Wind Chill: 54°   Ceiling: 1700
Heat Index: 54°   Visibility: 10mi
Dew Point: 45°   Wind: 7mph
Humidity: 72%   Direction: NA
Pressure: 29.78"   Gusts: NA
Location:  42.67°N, 83.39°W
Report Text: KPTK 201753Z VRB06KT 10SM BKN017 OVC060 12/07 A2978 RMK AO2 SLP086 T01220072 10122 20078 56016
Loading
Personal Weather Stations






























Interactive Weather Map
Tropical Storm Tracking
New forecast layout! Learn more

10-Day Weather Forecast

Advertisements
Track Severe Weather on mobile